Time;durP1;ratioP1;P1;durP2;ratioP2;P2;SDS_P1;SDS_P2;PMS_P1;PMS_P2;Temp;Humidity;BMP_temperature;BMP_pressure;BME280_temperature;BME280_humidity;BME280_pressure;Samples;Min_cycle;Max_cycle;Signal;HPM_P1;HPM_P2
2024/02/18 00:01:09;;;;;;;;;;;;;;;-144.99;100.00;67352.69;5051932;28;19955;-81
2024/02/18 00:03:34;;;;;;;;;;;;;;;-144.99;100.00;67352.69;5050920;28;19916;-81
2024/02/18 00:05:59;;;;;;;;;;;;;;;-144.99;100.00;67352.69;5049796;28;19980;-80
2024/02/18 00:08:24;;;;;;;;;;;;;;;-144.99;100.00;67352.69;5052083;28;19956;-80
2024/02/18 00:10:50;;;;;;;;;;;;;;;-144.99;100.00;67352.69;5052064;28;19917;-81
2024/02/18 00:13:15;;;;;;;;;;;;;;;-144.99;100.00;67352.69;5052683;28;20306;-81
2024/02/18 00:15:40;;;;;;;;;;;;;;;-144.99;100.00;67352.69;5051724;28;19991;-80
2024/02/18 00:18:06;;;;;;;;;;;;;;;-144.99;100.00;67352.69;5051361;28;20267;-81
2024/02/18 00:20:31;;;;;;;;;;;;;;;-144.99;100.00;67352.69;5048597;28;19943;-81
2024/02/18 00:22:56;;;;;;;;;;;;;;;-144.99;100.00;67352.69;5051416;28;20304;-81
2024/02/18 00:25:21;;;;;;;;;;;;;;;-144.99;100.00;67352.69;5050215;28;19917;-81
2024/02/18 00:27:46;;;;;;;;;;;;;;;-144.99;100.00;67352.69;5047122;28;19920;-80
2024/02/18 00:30:12;;;;;;;;;;;;;;;-144.99;100.00;67352.69;5046587;28;19921;-80
2024/02/18 00:32:37;;;;;;;;;;;;;;;-144.99;100.00;67352.69;5051105;28;20279;-80
2024/02/18 00:35:02;;;;;;;;;;;;;;;-144.99;100.00;67352.69;5050418;28;19921;-80
2024/02/18 00:37:27;;;;;;;;;;;;;;;-144.99;100.00;67352.69;5047505;28;20398;-80
2024/02/18 00:39:53;;;;;;;;;;;;;;;-144.99;100.00;67352.69;5051449;28;19919;-80
2024/02/18 00:42:18;;;;;;;;;;;;;;;-144.99;100.00;67352.69;5051454;28;19979;-80
2024/02/18 00:44:43;;;;;;;;;;;;;;;-144.99;100.00;67352.69;5052544;28;19917;-80
2024/02/18 00:47:08;;;;;;;;;;;;;;;-144.99;100.00;67352.69;5056647;28;20003;-81
2024/02/18 00:49:34;;;;;;;;;;;;;;;-144.99;100.00;67352.69;5058510;28;19935;-81
2024/02/18 00:51:59;;;;;;;;;;;;;;;-144.99;100.00;67352.69;5054559;28;19924;-81
2024/02/18 00:54:24;;;;;;;;;;;;;;;-144.99;100.00;67352.69;5056497;28;19998;-80
2024/02/18 00:56:50;;;;;;;;;;;;;;;-144.99;100.00;67352.69;5053612;28;19912;-82
2024/02/18 00:59:15;;;;;;;;;;;;;;;-144.99;100.00;67352.69;5056043;28;19921;-81
2024/02/18 01:01:41;;;;;;;;;;;;;;;-144.99;100.00;67352.69;5056344;28;19970;-81
2024/02/18 01:04:06;;;;;;;;;;;;;;;-144.99;100.00;67352.69;5055009;28;19962;-81
2024/02/18 01:06:31;;;;;;;;;;;;;;;-144.99;100.00;67352.69;5054344;28;20401;-81
2024/02/18 01:08:56;;;;;;;;;;;;;;;-144.99;100.00;67352.69;5053594;28;19917;-81
2024/02/18 01:11:21;;;;;;;;;;;;;;;-144.99;100.00;67352.69;5055101;28;19948;-81
2024/02/18 01:13:47;;;;;;;;;;;;;;;-144.99;100.00;67352.69;5055389;28;19917;-81
2024/02/18 01:16:12;;;;;;;;;;;;;;;-144.99;100.00;67352.69;5054075;28;19924;-81
2024/02/18 01:18:39;;;;;;;;;;;;;;;-144.99;100.00;67352.69;5053708;28;19917;-80
2024/02/18 01:21:04;;;;;;;;;;;;;;;-144.99;100.00;67352.69;5054172;28;20035;-80
2024/02/18 01:23:29;;;;;;;;;;;;;;;-144.99;100.00;67352.69;5056535;28;19924;-81
2024/02/18 01:25:54;;;;;;;;;;;;;;;-144.99;100.00;67352.69;5052133;28;19920;-81
2024/02/18 01:28:19;;;;;;;;;;;;;;;-144.99;100.00;67352.69;5052649;28;19916;-81
2024/02/18 01:30:45;;;;;;;;;;;;;;;-144.99;100.00;67352.69;5055133;28;19966;-80
2024/02/18 01:33:10;;;;;;;;;;;;;;;-144.99;100.00;67352.69;5053261;28;19912;-80
2024/02/18 01:35:35;;;;;;;;;;;;;;;-144.99;100.00;67352.69;5051537;28;19913;-80
2024/02/18 01:38:01;;;;;;;;;;;;;;;-144.99;100.00;67352.69;5053172;28;19913;-80
2024/02/18 01:40:26;;;;;;;;;;;;;;;-144.99;100.00;67352.69;5052795;28;20414;-80
2024/02/18 01:42:51;;;;;;;;;;;;;;;-144.99;100.00;67352.69;5053194;28;19917;-81
2024/02/18 01:45:16;;;;;;;;;;;;;;;-144.99;100.00;67352.69;5054677;28;19921;-81
2024/02/18 01:47:43;;;;;;;;;;;;;;;-144.99;100.00;67352.69;5052384;28;19921;-80
2024/02/18 01:50:08;;;;;;;;;;;;;;;-144.99;100.00;67352.69;5053533;28;19920;-80
2024/02/18 01:52:35;;;;;;;;;;;;;;;-144.99;100.00;67352.69;5054759;28;20353;-80
2024/02/18 01:55:01;;;;;;;;;;;;;;;-144.99;100.00;67352.69;5053199;28;20107;-81
2024/02/18 01:57:29;;;;;;;;;;;;;;;-144.99;100.00;67352.69;5047771;28;19917;-81
2024/02/18 01:59:59;;;;;;;;;;;;;;;-144.99;100.00;67352.69;5053716;28;19919;-80
2024/02/18 02:02:24;;;;;;;;;;;;;;;-144.99;100.00;67352.69;5048927;28;19917;-82
2024/02/18 02:04:50;;;;;;;;;;;;;;;-144.99;100.00;67352.69;5053594;28;19978;-82
2024/02/18 02:07:15;;;;;;;;;;;;;;;-144.99;100.00;67352.69;5049721;28;19925;-81
2024/02/18 02:09:41;;;;;;;;;;;;;;;-144.99;100.00;67352.69;5052083;28;20020;-81
2024/02/18 02:12:06;;;;;;;;;;;;;;;-144.99;100.00;67352.69;5052792;28;20055;-81
2024/02/18 02:14:31;;;;;;;;;;;;;;;-144.99;100.00;67352.69;5041489;28;20019;-80
2024/02/18 02:16:57;;;;;;;;;;;;;;;-144.99;100.00;67352.69;5051665;28;19913;-80
2024/02/18 02:19:22;;;;;;;;;;;;;;;-144.99;100.00;67352.69;5041919;28;19920;-80
2024/02/18 02:21:48;;;;;;;;;;;;;;;-144.99;100.00;67352.69;5055738;28;19912;-80
2024/02/18 02:24:13;;;;;;;;;;;;;;;-144.99;100.00;67352.69;5041629;28;19916;-81
2024/02/18 02:26:41;;;;;;;;;;;;;;;-144.99;100.00;67352.69;5052169;28;19913;-81
2024/02/18 02:29:12;;;;;;;;;;;;;;;-144.99;100.00;67352.69;5043925;28;19955;-81
2024/02/18 02:31:41;;;;;;;;;;;;;;;-144.99;100.00;67352.69;5052286;28;19920;-80
2024/02/18 02:34:06;;;;;;;;;;;;;;;-144.99;100.00;67352.69;5043085;28;20379;-80
2024/02/18 02:36:31;;;;;;;;;;;;;;;-144.99;100.00;67352.69;5049774;28;19913;-80
2024/02/18 02:38:56;;;;;;;;;;;;;;;-144.99;100.00;67352.69;5052504;28;19952;-81
2024/02/18 02:41:22;;;;;;;;;;;;;;;-144.99;100.00;67352.69;5054341;28;19919;-81
2024/02/18 02:43:47;;;;;;;;;;;;;;;-144.99;100.00;67352.69;5045522;28;19917;-81
2024/02/18 02:46:12;;;;;;;;;;;;;;;-144.99;100.00;67352.69;5049714;28;20276;-81
2024/02/18 02:48:37;;;;;;;;;;;;;;;-144.99;100.00;67352.69;5045847;28;19997;-80
2024/02/18 02:51:03;;;;;;;;;;;;;;;-144.99;100.00;67352.69;5053624;28;19917;-80
2024/02/18 02:53:28;;;;;;;;;;;;;;;-144.99;100.00;67352.69;5045836;28;20367;-81
2024/02/18 02:55:53;;;;;;;;;;;;;;;-144.99;100.00;67352.69;5053599;28;19955;-81
2024/02/18 02:58:18;;;;;;;;;;;;;;;-144.99;100.00;67352.69;5046564;28;20020;-81
2024/02/18 03:00:43;;;;;;;;;;;;;;;-144.99;100.00;67352.69;5042720;28;19917;-81
2024/02/18 03:03:08;;;;;;;;;;;;;;;-144.99;100.00;67352.69;5043239;28;19917;-81
2024/02/18 03:05:34;;;;;;;;;;;;;;;-144.99;100.00;67352.69;5049201;28;19919;-81
2024/02/18 03:07:59;;;;;;;;;;;;;;;-144.99;100.00;67352.69;5052672;28;20439;-81
2024/02/18 03:10:24;;;;;;;;;;;;;;;-144.99;100.00;67352.69;5052884;28;19913;-80
2024/02/18 03:12:49;;;;;;;;;;;;;;;-144.99;100.00;67352.69;5053003;28;19913;-81
2024/02/18 03:15:14;;;;;;;;;;;;;;;-144.99;100.00;67352.69;5053458;28;19917;-80
2024/02/18 03:17:40;;;;;;;;;;;;;;;-144.99;100.00;67352.69;5052298;28;20402;-80
2024/02/18 03:20:11;;;;;;;;;;;;;;;-144.99;100.00;67352.69;5054238;28;19963;-80
2024/02/18 03:22:36;;;;;;;;;;;;;;;-144.99;100.00;67352.69;5052776;28;19916;-81
2024/02/18 03:25:02;;;;;;;;;;;;;;;-144.99;100.00;67352.69;5053620;28;19919;-80
2024/02/18 03:27:27;;;;;;;;;;;;;;;-144.99;100.00;67352.69;5052997;28;19923;-80
2024/02/18 03:29:54;;;;;;;;;;;;;;;-144.99;100.00;67352.69;5053124;28;20474;-80
2024/02/18 03:32:19;;;;;;;;;;;;;;;-144.99;100.00;67352.69;5052674;28;20296;-80
2024/02/18 03:34:44;;;;;;;;;;;;;;;-144.99;100.00;67352.69;5053281;28;19917;-81
2024/02/18 03:37:09;;;;;;;;;;;;;;;-144.99;100.00;67352.69;5051108;28;20294;-80
2024/02/18 03:39:35;;;;;;;;;;;;;;;-144.99;100.00;67352.69;5052742;28;19964;-81
2024/02/18 03:42:00;;;;;;;;;;;;;;;-144.99;100.00;67352.69;5052123;28;19913;-80
2024/02/18 03:44:25;;;;;;;;;;;;;;;-144.99;100.00;67352.69;5053209;28;19917;-81
2024/02/18 03:46:50;;;;;;;;;;;;;;;-144.99;100.00;67352.69;5051725;28;19913;-81
2024/02/18 03:49:15;;;;;;;;;;;;;;;-144.99;100.00;67352.69;5051803;28;20050;-81
2024/02/18 03:51:41;;;;;;;;;;;;;;;-144.99;100.00;67352.69;5049602;28;19917;-80
2024/02/18 03:54:06;;;;;;;;;;;;;;;-144.99;100.00;67352.69;5051968;28;19913;-80
2024/02/18 03:56:34;;;;;;;;;;;;;;;-144.99;100.00;67352.69;5051643;28;20363;-80
2024/02/18 03:58:59;;;;;;;;;;;;;;;-144.99;100.00;67352.69;5050742;28;19917;-79
2024/02/18 04:01:25;;;;;;;;;;;;;;;-144.99;100.00;67352.69;5052045;28;19917;-80
2024/02/18 04:03:50;;;;;;;;;;;;;;;-144.99;100.00;67352.69;5050542;28;19913;-80
2024/02/18 04:06:15;;;;;;;;;;;;;;;-144.99;100.00;67352.69;5049557;28;19924;-80
2024/02/18 04:08:40;;;;;;;;;;;;;;;-144.99;100.00;67352.69;5052239;28;20007;-80
2024/02/18 04:11:06;;;;;;;;;;;;;;;-144.99;100.00;67352.69;5051849;28;19913;-80
2024/02/18 04:13:31;;;;;;;;;;;;;;;-144.99;100.00;67352.69;5050250;28;19951;-80
2024/02/18 04:15:56;;;;;;;;;;;;;;;-144.99;100.00;67352.69;5052008;28;20375;-80
2024/02/18 04:18:21;;;;;;;;;;;;;;;-144.99;100.00;67352.69;5050876;28;19913;-80
2024/02/18 04:20:47;;;;;;;;;;;;;;;-144.99;100.00;67352.69;5055161;28;19955;-80
2024/02/18 04:23:12;;;;;;;;;;;;;;;-144.99;100.00;67352.69;5054453;28;19948;-80
2024/02/18 04:25:37;;;;;;;;;;;;;;;-144.99;100.00;67352.69;5054748;28;19975;-80
2024/02/18 04:28:02;;;;;;;;;;;;;;;-144.99;100.00;67352.69;5053696;28;19929;-80
2024/02/18 04:30:28;;;;;;;;;;;;;;;-144.99;100.00;67352.69;5054380;28;19916;-80
2024/02/18 04:32:53;;;;;;;;;;;;;;;-144.99;100.00;67352.69;5055808;28;20058;-80
2024/02/18 04:35:18;;;;;;;;;;;;;;;-144.99;100.00;67352.69;5053873;28;19913;-80
2024/02/18 04:37:43;;;;;;;;;;;;;;;-144.99;100.00;67352.69;5054963;28;19936;-80
2024/02/18 04:40:09;;;;;;;;;;;;;;;-144.99;100.00;67352.69;5055411;28;19912;-80
2024/02/18 04:42:34;;;;;;;;;;;;;;;-144.99;100.00;67352.69;5055686;28;19912;-80
2024/02/18 04:44:59;;;;;;;;;;;;;;;-144.99;100.00;67352.69;5053718;28;20015;-80
2024/02/18 04:47:25;;;;;;;;;;;;;;;-144.99;100.00;67352.69;5054530;28;19917;-80
2024/02/18 04:49:51;;;;;;;;;;;;;;;-144.99;100.00;67352.69;5055317;28;19936;-80
2024/02/18 04:52:16;;;;;;;;;;;;;;;-144.99;100.00;67352.69;5053781;28;20372;-79
2024/02/18 04:54:41;;;;;;;;;;;;;;;-144.99;100.00;67352.69;5053628;28;19913;-80
2024/02/18 04:57:07;;;;;;;;;;;;;;;-144.99;100.00;67352.69;5052735;28;20329;-79
2024/02/18 04:59:34;;;;;;;;;;;;;;;-144.99;100.00;67352.69;5053814;28;19962;-80
2024/02/18 05:02:00;;;;;;;;;;;;;;;-144.99;100.00;67352.69;5053362;28;19962;-80
2024/02/18 05:04:29;;;;;;;;;;;;;;;-144.99;100.00;67352.69;5055216;28;19912;-79
2024/02/18 05:06:54;;;;;;;;;;;;;;;-144.99;100.00;67352.69;5054501;28;19912;-81
2024/02/18 05:09:20;;;;;;;;;;;;;;;-144.99;100.00;67352.69;5055771;28;19913;-80
2024/02/18 05:11:45;;;;;;;;;;;;;;;-144.99;100.00;67352.69;5055182;28;19916;-80
2024/02/18 05:14:10;;;;;;;;;;;;;;;-144.99;100.00;67352.69;5049951;28;19932;-80
2024/02/18 05:16:35;;;;;;;;;;;;;;;-144.99;100.00;67352.69;5049672;28;19921;-80
2024/02/18 05:19:02;;;;;;;;;;;;;;;-144.99;100.00;67352.69;5054784;28;19963;-80
2024/02/18 05:21:27;;;;;;;;;;;;;;;-144.99;100.00;67352.69;5051446;28;19920;-80
2024/02/18 05:23:53;;;;;;;;;;;;;;;-144.99;100.00;67352.69;5051445;28;19948;-80
2024/02/18 05:26:18;;;;;;;;;;;;;;;-144.99;100.00;67352.69;5053249;28;19932;-81
2024/02/18 05:28:44;;;;;;;;;;;;;;;-144.99;100.00;67352.69;5055510;28;19924;-80
2024/02/18 05:31:22;;;;;;;;;;;;;;;-144.99;100.00;67352.69;5055173;28;20003;-80
2024/02/18 05:33:48;;;;;;;;;;;;;;;-144.99;100.00;67352.69;5054945;28;19974;-81
2024/02/18 05:36:13;;;;;;;;;;;;;;;-144.99;100.00;67352.69;5048570;28;20357;-80
2024/02/18 05:38:40;;;;;;;;;;;;;;;-144.99;100.00;67352.69;5055413;28;19920;-80
2024/02/18 05:41:05;;;;;;;;;;;;;;;-144.99;100.00;67352.69;5054111;28;19919;-82
2024/02/18 05:43:30;;;;;;;;;;;;;;;-144.99;100.00;67352.69;5053743;28;19912;-80
2024/02/18 05:45:55;;;;;;;;;;;;;;;-144.99;100.00;67352.69;5054984;28;20378;-81
2024/02/18 05:48:21;;;;;;;;;;;;;;;-144.99;100.00;67352.69;5052813;28;19920;-80
2024/02/18 05:50:46;;;;;;;;;;;;;;;-144.99;100.00;67352.69;5054781;28;19913;-81
2024/02/18 05:53:12;;;;;;;;;;;;;;;-144.99;100.00;67352.69;5053290;28;19978;-81
2024/02/18 05:55:37;;;;;;;;;;;;;;;-144.99;100.00;67352.69;5053644;28;20379;-80
2024/02/18 05:58:03;;;;;;;;;;;;;;;-144.99;100.00;67352.69;5053616;28;19912;-81
2024/02/18 06:00:28;;;;;;;;;;;;;;;-144.99;100.00;67352.69;5054568;28;19920;-80
2024/02/18 06:02:53;;;;;;;;;;;;;;;-144.99;100.00;67352.69;5053271;28;19948;-81
2024/02/18 06:05:19;;;;;;;;;;;;;;;-144.99;100.00;67352.69;5054739;28;19966;-81
2024/02/18 06:07:45;;;;;;;;;;;;;;;-144.99;100.00;67352.69;5054171;28;19917;-79
2024/02/18 06:10:10;;;;;;;;;;;;;;;-144.99;100.00;67352.69;5054903;28;20383;-81
2024/02/18 06:12:35;;;;;;;;;;;;;;;-144.99;100.00;67352.69;5054679;28;19924;-80
2024/02/18 06:15:00;;;;;;;;;;;;;;;-144.99;100.00;67352.69;5052398;28;20415;-81
2024/02/18 06:17:26;;;;;;;;;;;;;;;-144.99;100.00;67352.69;5052042;28;19924;-81
2024/02/18 06:19:51;;;;;;;;;;;;;;;-144.99;100.00;67352.69;5047706;28;19916;-80
2024/02/18 06:22:16;;;;;;;;;;;;;;;-144.99;100.00;67352.69;5040131;28;19916;-80
2024/02/18 06:24:43;;;;;;;;;;;;;;;-144.99;100.00;67352.69;5053233;28;19913;-81
2024/02/18 06:27:08;;;;;;;;;;;;;;;-144.99;100.00;67352.69;5052420;28;19948;-81
2024/02/18 06:29:33;;;;;;;;;;;;;;;-144.99;100.00;67352.69;5054734;28;19916;-81
2024/02/18 06:31:58;;;;;;;;;;;;;;;-144.99;100.00;67352.69;5052128;28;19920;-80
2024/02/18 06:34:24;;;;;;;;;;;;;;;-144.99;100.00;67352.69;5053646;28;19920;-81
2024/02/18 06:36:49;;;;;;;;;;;;;;;-144.99;100.00;67352.69;5053577;28;19917;-81
2024/02/18 06:39:14;;;;;;;;;;;;;;;-144.99;100.00;67352.69;5053283;28;19917;-81
2024/02/18 06:41:39;;;;;;;;;;;;;;;-144.99;100.00;67352.69;5052583;28;19913;-80
2024/02/18 06:44:05;;;;;;;;;;;;;;;-144.99;100.00;67352.69;5050850;28;19920;-80
2024/02/18 06:46:31;;;;;;;;;;;;;;;-144.99;100.00;67352.69;5052202;28;19913;-81
2024/02/18 06:48:56;;;;;;;;;;;;;;;-144.99;100.00;67352.69;5051981;28;20379;-81
2024/02/18 06:51:24;;;;;;;;;;;;;;;-144.99;100.00;67352.69;5052440;28;19912;-80
2024/02/18 06:53:49;;;;;;;;;;;;;;;-144.99;100.00;67352.69;5052682;28;20395;-81
2024/02/18 06:56:18;;;;;;;;;;;;;;;-144.99;100.00;67352.69;5051684;28;19913;-81
2024/02/18 06:58:43;;;;;;;;;;;;;;;-144.99;100.00;67352.69;5054178;28;19913;-80
2024/02/18 07:01:08;;;;;;;;;;;;;;;-144.99;100.00;67352.69;5052150;28;19912;-81
2024/02/18 07:03:41;;;;;;;;;;;;;;;12.10;82.24;101738.88;5131450;27;20181;-82
2024/02/18 07:06:06;;;;;;;;;;;;;;;12.13;83.09;101742.97;5129709;28;19969;-81
2024/02/18 07:08:31;;;;;;;;;;;;;;;12.17;83.38;101739.38;5113170;28;19951;-81
2024/02/18 07:10:56;;;;;;;;;;;;;;;12.38;83.04;101734.47;5095962;28;19918;-81
2024/02/18 07:13:22;;;;;;;;;;;;;;;12.29;83.00;101722.50;5104262;28;19962;-81
2024/02/18 07:15:47;;;;;;;;;;;;;;;12.25;83.17;101728.88;5093082;28;20003;-82
2024/02/18 07:18:12;;;;;;;;;;;;;;;12.52;82.49;101740.88;5103742;28;20002;-81
2024/02/18 07:20:37;;;;;;;;;;;;;;;12.59;82.19;101737.00;5107967;28;19916;-81
2024/02/18 07:23:03;;;;;;;;;;;;;;;12.41;82.07;101724.84;5109830;28;20005;-82
2024/02/18 07:25:28;;;;;;;;;;;;;;;12.41;81.97;101724.84;5110917;28;19979;-83
2024/02/18 07:27:53;;;;;;;;;;;;;;;12.51;82.20;101722.81;5108521;28;20145;-81
2024/02/18 07:30:18;;;;;;;;;;;;;;;12.53;81.90;101719.78;5110973;28;19965;-82
2024/02/18 07:32:43;;;;;;;;;;;;;;;12.58;81.51;101708.72;5106452;28;20026;-82
2024/02/18 07:35:08;;;;;;;;;;;;;;;12.58;81.43;101702.44;5096530;28;20002;-81
2024/02/18 07:37:34;;;;;;;;;;;;;;;12.58;81.25;101707.91;5092685;28;19918;-81
2024/02/18 07:39:59;;;;;;;;;;;;;;;12.49;81.04;101703.09;5103738;28;19958;-81
2024/02/18 07:42:25;;;;;;;;;;;;;;;12.34;81.46;101697.00;5110816;28;20014;-81
2024/02/18 07:44:51;;;;;;;;;;;;;;;12.15;81.99;101694.16;5110297;28;20003;-81
2024/02/18 07:47:16;;;;;;;;;;;;;;;12.39;81.29;101705.13;5110272;28;19952;-81
2024/02/18 07:49:41;;;;;;;;;;;;;;;12.55;81.08;101701.09;5111802;28;19912;-81
2024/02/18 07:52:06;;;;;;;;;;;;;;;12.50;81.01;101710.22;5109505;28;20014;-82
2024/02/18 07:54:31;;;;;;;;;;;;;;;12.39;80.74;101700.47;5103804;28;19920;-81
2024/02/18 07:56:57;;;;;;;;;;;;;;;12.70;80.38;101702.81;5097600;28;20371;-81
2024/02/18 07:59:22;;;;;;;;;;;;;;;12.86;80.25;101715.22;5106683;28;19925;-81
2024/02/18 08:01:48;;;;;;;;;;;;;;;12.77;80.14;101697.81;5095051;28;19920;-81
2024/02/18 08:04:13;;;;;;;;;;;;;;;12.94;79.72;101702.78;5106634;28;19978;-81
2024/02/18 08:06:38;;;;;;;;;;;;;;;12.80;80.05;101689.78;5102326;28;19933;-81
2024/02/18 08:09:03;;;;;;;;;;;;;;;13.21;79.69;101697.47;5111871;28;20348;-81
2024/02/18 08:11:29;;;;;;;;;;;;;;;13.25;79.06;101697.69;5093917;28;19924;-82
2024/02/18 08:13:54;;;;;;;;;;;;;;;13.18;78.63;101670.63;5096225;28;19954;-81
2024/02/18 08:16:19;;;;;;;;;;;;;;;13.05;78.39;101658.44;5097352;28;19916;-81
2024/02/18 08:18:45;;;;;;;;;;;;;;;13.08;78.54;101657.84;5098294;28;20370;-81
2024/02/18 08:21:10;;;;;;;;;;;;;;;13.31;78.38;101674.53;5096657;28;19912;-81
2024/02/18 08:23:35;;;;;;;;;;;;;;;13.20;78.12;101659.34;5094743;28;19923;-81
2024/02/18 08:26:00;;;;;;;;;;;;;;;13.12;78.36;101658.06;5094320;28;19920;-80
2024/02/18 08:28:26;;;;;;;;;;;;;;;13.03;78.41;101646.13;5095067;28;19938;-81
2024/02/18 08:30:52;;;;;;;;;;;;;;;13.10;78.42;101652.06;5094709;28;19938;-81
2024/02/18 08:33:17;;;;;;;;;;;;;;;12.91;78.56;101637.53;5093876;28;20371;-81
2024/02/18 08:35:42;;;;;;;;;;;;;;;12.84;78.53;101629.69;5095228;28;19916;-81
2024/02/18 08:38:07;;;;;;;;;;;;;;;13.06;78.56;101640.88;5083333;28;19912;-81
2024/02/18 08:40:32;;;;;;;;;;;;;;;12.78;78.42;101615.22;5073120;28;19921;-81
2024/02/18 08:42:58;;;;;;;;;;;;;;;12.98;78.46;101625.06;5083639;28;19921;-80
2024/02/18 08:45:23;;;;;;;;;;;;;;;12.86;78.14;101616.47;5062264;28;20380;-81
2024/02/18 08:47:48;;;;;;;;;;;;;;;13.10;78.22;101625.44;5061293;28;19916;-81
2024/02/18 08:50:14;;;;;;;;;;;;;;;13.04;77.97;101623.88;5063841;28;20283;-81
2024/02/18 08:52:39;;;;;;;;;;;;;;;13.10;77.52;101611.72;5086745;28;19916;-82
2024/02/18 08:55:05;;;;;;;;;;;;;;;13.10;77.37;101606.22;5064548;28;19920;-81
2024/02/18 08:57:30;;;;;;;;;;;;;;;13.32;76.79;101604.81;5081928;28;19935;-81
2024/02/18 08:59:57;;;;;;;;;;;;;;;13.38;76.06;101590.69;5093544;28;19912;-81
2024/02/18 09:02:22;;;;;;;;;;;;;;;13.52;75.67;101601.69;5068736;28;19947;-81
2024/02/18 09:04:47;;;;;;;;;;;;;;;13.37;75.68;101588.22;5087282;28;19918;-81
2024/02/18 09:07:12;;;;;;;;;;;;;;;13.38;75.89;101587.94;5092806;28;20378;-81
2024/02/18 09:09:38;;;;;;;;;;;;;;;13.19;75.56;101570.72;5085139;28;19947;-81
2024/02/18 09:12:03;;;;;;;;;;;;;;;13.40;75.80;101582.13;5078803;28;20007;-81
2024/02/18 09:14:28;;;;;;;;;;;;;;;13.36;75.46;101576.44;5087924;28;19912;-82
2024/02/18 09:16:53;;;;;;;;;;;;;;;13.40;75.57;101580.19;5089055;28;19912;-82
2024/02/18 09:19:18;;;;;;;;;;;;;;;13.46;75.37;101586.44;5072845;28;19917;-82
2024/02/18 09:21:44;;;;;;;;;;;;;;;13.41;75.36;101575.53;5080398;28;19916;-81
2024/02/18 09:24:09;;;;;;;;;;;;;;;13.24;75.98;101575.28;5092777;28;20378;-82
2024/02/18 09:26:34;;;;;;;;;;;;;;;13.61;75.72;101591.63;5080929;28;19917;-82
2024/02/18 09:28:59;;;;;;;;;;;;;;;13.22;76.35;101572.03;5082324;28;19935;-81
2024/02/18 09:31:24;;;;;;;;;;;;;;;13.68;76.15;101593.97;5062061;28;19923;-82
2024/02/18 09:33:50;;;;;;;;;;;;;;;13.84;75.79;101595.28;5082549;28;19935;-81
2024/02/18 09:36:15;;;;;;;;;;;;;;;13.51;75.95;101571.78;5084593;28;19952;-81
2024/02/18 09:38:40;;;;;;;;;;;;;;;13.53;76.16;101570.34;5081310;28;19916;-81
2024/02/18 09:41:08;;;;;;;;;;;;;;;13.53;76.10;101572.28;5083331;28;19912;-81
2024/02/18 09:43:41;;;;;;;;;;;;;;;13.63;75.60;101583.91;5081828;28;19966;-81
2024/02/18 09:46:07;;;;;;;;;;;;;;;13.79;75.42;101581.66;5084373;28;20385;-81
2024/02/18 09:48:32;;;;;;;;;;;;;;;13.74;75.35;101570.75;5082714;28;19924;-81
2024/02/18 09:50:58;;;;;;;;;;;;;;;13.93;75.08;101571.50;5082127;28;20385;-81
2024/02/18 09:53:25;;;;;;;;;;;;;;;13.60;75.50;101565.28;5084088;28;20394;-81
2024/02/18 09:55:50;;;;;;;;;;;;;;;13.78;75.50;101568.25;5082792;28;20406;-81
2024/02/18 09:58:15;;;;;;;;;;;;;;;13.67;75.20;101554.72;5077098;28;19916;-81
2024/02/18 10:00:40;;;;;;;;;;;;;;;13.77;75.34;101541.91;5081576;28;19916;-81
2024/02/18 10:03:08;;;;;;;;;;;;;;;13.90;75.48;101563.88;5082203;28;19949;-81
2024/02/18 10:05:34;;;;;;;;;;;;;;;14.22;75.69;101576.66;5081037;28;19925;-81
2024/02/18 10:08:02;;;;;;;;;;;;;;;14.05;74.43;101537.19;5081574;28;19939;-81
2024/02/18 10:10:32;;;;;;;;;;;;;;;14.31;74.45;101565.72;5088153;28;19958;-81
2024/02/18 10:12:57;;;;;;;;;;;;;;;14.49;74.02;101553.81;5092201;28;20002;-81
2024/02/18 10:15:23;;;;;;;;;;;;;;;14.14;74.00;101527.09;5093575;28;19926;-81
2024/02/18 10:17:49;;;;;;;;;;;;;;;14.25;74.82;101529.31;5093405;28;19912;-81
2024/02/18 10:20:14;;;;;;;;;;;;;;;14.45;74.62;101540.97;5085302;28;19912;-81
2024/02/18 10:22:39;;;;;;;;;;;;;;;14.62;73.83;101532.09;5086050;28;19962;-81
2024/02/18 10:25:07;;;;;;;;;;;;;;;14.68;73.84;101528.06;5071719;28;19915;-81
2024/02/18 10:27:35;;;;;;;;;;;;;;;14.63;73.32;101511.69;5081857;28;19912;-81
2024/02/18 10:30:00;;;;;;;;;;;;;;;14.53;72.77;101488.00;5083979;28;19919;-81
2024/02/18 10:32:25;;;;;;;;;;;;;;;14.31;73.61;101480.50;5085606;28;19912;-81
2024/02/18 10:34:50;;;;;;;;;;;;;;;14.49;73.31;101503.50;5093892;28;19912;-82
2024/02/18 10:37:21;;;;;;;;;;;;;;;14.27;73.07;101479.50;5092367;28;20360;-81
2024/02/18 10:39:49;;;;;;;;;;;;;;;14.47;73.05;101490.06;5093050;28;19915;-81
2024/02/18 10:42:17;;;;;;;;;;;;;;;14.35;72.57;101475.22;5095497;28;19916;-81
2024/02/18 10:44:43;;;;;;;;;;;;;;;14.48;72.58;101490.88;5097055;28;19999;-81
2024/02/18 10:47:11;;;;;;;;;;;;;;;14.56;72.21;101476.38;5097748;28;20370;-81
2024/02/18 10:49:39;;;;;;;;;;;;;;;14.62;72.19;101477.88;5096960;28;19912;-81
2024/02/18 10:52:09;;;;;;;;;;;;;;;14.51;71.92;101458.06;5096862;28;19926;-81
2024/02/18 10:54:35;;;;;;;;;;;;;;;14.88;71.16;101472.53;5095447;28;19919;-81
2024/02/18 10:57:01;;;;;;;;;;;;;;;14.82;71.39;101463.59;5074586;28;19917;-81
2024/02/18 10:59:34;;;;;;;;;;;;;;;15.03;71.49;101474.06;5077476;28;19912;-81
2024/02/18 11:02:04;;;;;;;;;;;;;;;14.74;70.79;101433.28;5086672;28;19920;-81
2024/02/18 11:04:30;;;;;;;;;;;;;;;14.51;71.30;101440.75;5094597;28;20109;-81
2024/02/18 11:06:55;;;;;;;;;;;;;;;14.83;71.80;101458.91;5091755;28;20438;-81
2024/02/18 11:09:21;;;;;;;;;;;;;;;14.90;71.54;101448.28;5091811;28;19912;-81
2024/02/18 11:11:48;;;;;;;;;;;;;;;14.78;71.25;101431.53;5092399;28;19919;-82
2024/02/18 11:14:15;;;;;;;;;;;;;;;14.67;71.59;101427.41;5091593;28;19970;-82
2024/02/18 11:16:41;;;;;;;;;;;;;;;14.69;72.00;101430.66;5092211;28;19912;-82
2024/02/18 11:19:08;;;;;;;;;;;;;;;15.03;72.02;101446.53;5091690;28;20010;-80
2024/02/18 11:21:33;;;;;;;;;;;;;;;14.78;72.19;101413.09;5093124;28;19916;-81
2024/02/18 11:23:59;;;;;;;;;;;;;;;14.62;72.42;101417.38;5091490;28;20054;-82
2024/02/18 11:26:24;;;;;;;;;;;;;;;14.72;72.87;101408.84;5091009;28;20393;-81
2024/02/18 11:28:49;;;;;;;;;;;;;;;14.78;72.49;101390.28;5091611;28;20298;-80
2024/02/18 11:31:21;;;;;;;;;;;;;;;14.71;72.02;101393.47;5092989;28;19912;-82
2024/02/18 11:33:46;;;;;;;;;;;;;;;14.82;73.29;101394.81;5091841;28;19916;-81
2024/02/18 11:36:12;;;;;;;;;;;;;;;14.48;73.30;101369.88;5091382;28;20124;-81
2024/02/18 11:38:45;;;;;;;;;;;;;;;14.50;73.77;101373.13;5082257;28;19927;-82
2024/02/18 11:41:24;;;;;;;;;;;;;;;15.00;73.77;101383.88;5076373;28;19916;-83
2024/02/18 11:43:53;;;;;;;;;;;;;;;15.10;73.57;101378.09;5091153;28;19924;-83
2024/02/18 11:46:19;;;;;;;;;;;;;;;14.92;73.52;101362.66;5092273;28;19912;-83
2024/02/18 11:48:44;;;;;;;;;;;;;;;15.24;73.96;101381.53;5093406;28;19931;-83
2024/02/18 11:51:10;;;;;;;;;;;;;;;15.04;73.90;101365.59;5085838;28;19912;-84
2024/02/18 11:53:35;;;;;;;;;;;;;;;14.83;74.22;101349.66;5085704;28;19947;-83
2024/02/18 11:56:00;;;;;;;;;;;;;;;14.35;75.16;101332.25;5091033;28;19912;-80
2024/02/18 11:58:26;;;;;;;;;;;;;;;14.12;76.16;101334.22;5095677;28;19912;-81
2024/02/18 12:00:51;;;;;;;;;;;;;;;14.21;76.55;101330.41;5097003;28;20030;-81
2024/02/18 12:03:17;;;;;;;;;;;;;;;14.38;76.36;101326.94;5090368;28;19920;-82
2024/02/18 12:05:42;;;;;;;;;;;;;;;14.26;76.50;101312.97;5090867;28;20002;-82
2024/02/18 12:08:07;;;;;;;;;;;;;;;14.27;77.18;101314.56;5087101;28;20098;-82
2024/02/18 12:10:33;;;;;;;;;;;;;;;14.61;76.72;101316.75;5099037;28;20378;-82
2024/02/18 12:12:58;;;;;;;;;;;;;;;14.41;77.32;101309.81;5099189;28;19912;-83
2024/02/18 12:15:25;;;;;;;;;;;;;;;14.43;77.39;101304.78;5098612;28;20357;-82
2024/02/18 12:17:52;;;;;;;;;;;;;;;14.33;78.62;101304.28;5096304;28;19931;-83